createdAt,value
2023-01-15T00:04:14.383Z,1.05
2023-01-15T00:19:15.930Z,0.70
2023-01-15T00:34:17.388Z,1.20
2023-01-15T00:49:19.488Z,0.60
2023-01-15T01:04:20.881Z,0.63
2023-01-15T01:19:22.472Z,0.60
2023-01-15T01:34:23.940Z,0.70
2023-01-15T01:49:25.368Z,0.60
2023-01-15T02:04:26.757Z,0.82
2023-01-15T02:19:28.164Z,1.40
2023-01-15T02:34:29.649Z,0.50
2023-01-15T02:49:33.024Z,0.85
2023-01-15T03:04:39.263Z,0.60
2023-01-15T03:19:42.647Z,1.58
2023-01-15T03:34:48.860Z,0.70
2023-01-15T03:49:53.163Z,0.60
2023-01-15T04:05:20.409Z,1.15
2023-01-15T04:20:23.091Z,0.68
2023-01-15T04:35:24.664Z,0.50
2023-01-15T04:50:26.104Z,0.70
2023-01-15T05:05:27.429Z,0.85
2023-01-15T05:20:28.847Z,0.57
2023-01-15T05:35:30.169Z,0.50
2023-01-15T05:50:31.672Z,0.50
2023-01-15T06:05:33.117Z,0.60
2023-01-15T06:20:34.546Z,0.60
2023-01-15T06:35:35.877Z,1.10
2023-01-15T06:50:37.210Z,0.68
2023-01-15T07:05:39.073Z,0.80
2023-01-15T07:20:40.514Z,2.17
2023-01-15T07:35:42.390Z,0.70
2023-01-15T07:50:43.783Z,0.60
2023-01-15T08:05:45.187Z,0.85
2023-01-15T08:20:47.356Z,0.77
2023-01-15T08:35:48.855Z,2.05
2023-01-15T08:50:50.886Z,0.85
2023-01-15T09:05:52.252Z,0.90
2023-01-15T09:20:53.701Z,1.92
2023-01-15T09:35:55.158Z,0.80
2023-01-15T09:50:56.944Z,0.70
2023-01-15T12:04:49.050Z,1.60
2023-01-15T12:19:50.480Z,0.80
2023-01-15T12:34:51.911Z,1.10
2023-01-15T12:49:53.403Z,2.65
2023-01-15T13:04:54.852Z,2.97
2023-01-15T13:19:57.520Z,1.60
2023-01-15T13:34:59.933Z,1.63
2023-01-15T13:50:01.404Z,1.30
2023-01-15T14:05:03.473Z,1.95
2023-01-15T14:20:05.026Z,1.10
2023-01-15T14:35:06.438Z,1.20
2023-01-15T14:50:07.767Z,3.30
2023-01-15T15:05:10.887Z,3.83
2023-01-15T15:20:13.228Z,1.25
2023-01-15T15:35:14.648Z,4.82
2023-01-15T15:50:16.056Z,1.83
2023-01-15T16:05:17.394Z,2.80
2023-01-15T16:20:18.840Z,6.82
2023-01-15T16:35:20.277Z,4.63
2023-01-15T16:50:21.625Z,1.60
2023-01-15T17:05:23.087Z,2.58
2023-01-15T17:20:27.708Z,2.17
2023-01-15T17:35:29.145Z,1.30
2023-01-15T17:50:30.568Z,4.03
2023-01-15T18:05:35.187Z,3.35
2023-01-15T18:20:36.682Z,3.00
2023-01-15T18:35:38.163Z,1.48
2023-01-15T18:50:39.558Z,1.60
2023-01-15T19:05:40.917Z,4.65
2023-01-15T19:20:42.258Z,7.32
2023-01-15T19:35:43.688Z,8.55
2023-01-15T19:50:45.201Z,2.78
2023-01-15T20:05:47.147Z,3.05
2023-01-15T20:20:49.263Z,3.92
2023-01-15T20:35:52.977Z,2.42
2023-01-15T20:51:03.309Z,4.82
2023-01-15T21:06:05.198Z,2.15
2023-01-15T21:21:06.659Z,4.00
2023-01-15T21:36:08.075Z,6.90
2023-01-15T21:51:09.476Z,4.97
2023-01-15T22:06:10.969Z,4.13
2023-01-15T22:21:15.618Z,3.58
2023-01-15T22:36:17.119Z,2.13
2023-01-15T22:51:18.522Z,5.82
2023-01-15T23:06:20.411Z,2.22
2023-01-15T23:21:21.776Z,3.42
2023-01-15T23:36:23.220Z,2.00
2023-01-15T23:51:24.551Z,2.35
